Time;durP1;ratioP1;P1;durP2;ratioP2;P2;SDS_P1;SDS_P2;PMS_P1;PMS_P2;Temp;Humidity;BMP_temperature;BMP_pressure;BME280_temperature;BME280_humidity;BME280_pressure;Samples;Min_cycle;Max_cycle;Signal;HPM_P1;HPM_P2
2020/12/06 00:01:41;;;;;;;19.50;14.37;;;;;;;3.11;100.00;94999.47;5010973;28;20644;-70
2020/12/06 00:04:10;;;;;;;17.70;13.67;;;;;;;3.15;100.00;94998.00;5011166;28;20191;-70
2020/12/06 00:06:36;;;;;;;20.43;14.90;;;;;;;3.18;100.00;95001.94;5010822;28;20182;-70
2020/12/06 00:09:06;;;;;;;18.47;13.77;;;;;;;3.26;100.00;95007.59;4993892;28;20191;-70
2020/12/06 00:11:32;;;;;;;19.67;14.57;;;;;;;3.24;100.00;95007.00;5012219;28;20330;-70
2020/12/06 00:13:58;;;;;;;18.30;13.60;;;;;;;3.29;100.00;95003.75;5014489;28;20279;-71
2020/12/06 00:16:23;;;;;;;19.50;14.10;;;;;;;3.28;100.00;94992.63;5013745;28;20245;-69
2020/12/06 00:18:48;;;;;;;17.03;13.50;;;;;;;3.19;100.00;94986.19;5014741;28;20195;-68
2020/12/06 00:21:19;;;;;;;18.17;14.33;;;;;;;3.14;100.00;94996.44;5013592;28;20233;-69
2020/12/06 00:23:45;;;;;;;18.73;14.23;;;;;;;3.13;100.00;95004.41;5014003;28;20179;-67
2020/12/06 00:26:12;;;;;;;18.77;13.90;;;;;;;3.16;100.00;95006.56;5013625;28;20183;-74
2020/12/06 00:28:38;;;;;;;17.80;13.87;;;;;;;3.18;100.00;95007.13;5012412;28;20199;-69
2020/12/06 00:31:04;;;;;;;20.33;14.27;;;;;;;3.29;100.00;95007.13;5014923;28;20213;-68
2020/12/06 00:33:29;;;;;;;18.43;13.60;;;;;;;3.29;100.00;95009.72;5013897;28;20190;-68
2020/12/06 00:35:55;;;;;;;17.67;13.33;;;;;;;3.30;100.00;95005.31;5014259;28;20191;-69
2020/12/06 00:38:20;;;;;;;16.53;13.37;;;;;;;3.43;100.00;94999.16;5012647;28;20674;-69
2020/12/06 00:40:46;;;;;;;18.53;14.17;;;;;;;3.21;100.00;94978.22;5013985;28;20191;-68
2020/12/06 00:43:11;;;;;;;18.67;13.43;;;;;;;2.92;100.00;94969.53;5013595;28;20179;-73
2020/12/06 00:45:37;;;;;;;17.60;13.23;;;;;;;2.79;100.00;94957.56;5013926;28;20195;-68
2020/12/06 00:48:03;;;;;;;19.67;13.43;;;;;;;2.50;100.00;94958.44;5006644;28;20191;-68
2020/12/06 00:50:28;;;;;;;19.60;14.43;;;;;;;2.77;100.00;94941.50;5013487;28;20697;-68
2020/12/06 00:52:53;;;;;;;22.37;14.67;;;;;;;2.91;100.00;94929.13;5013851;28;20636;-68
2020/12/06 00:55:19;;;;;;;20.27;14.57;;;;;;;2.69;100.00;94923.72;5013383;28;20184;-68
2020/12/06 00:57:45;;;;;;;19.47;15.47;;;;;;;2.95;100.00;94916.56;5013109;28;20207;-69
2020/12/06 01:00:11;;;;;;;50.37;17.80;;;;;;;2.87;100.00;94915.88;5013188;28;20543;-74
2020/12/06 01:02:37;;;;;;;29.80;15.97;;;;;;;2.86;100.00;94913.50;5013595;28;20201;-68
2020/12/06 01:05:07;;;;;;;102.50;18.17;;;;;;;2.65;100.00;94930.34;5013466;28;20648;-68
2020/12/06 01:07:40;;;;;;;89.03;17.70;;;;;;;2.86;100.00;94927.22;5012855;28;20640;-68
2020/12/06 01:10:07;;;;;;;45.17;16.50;;;;;;;2.78;100.00;94922.41;5011042;28;20195;-69
2020/12/06 01:12:33;;;;;;;169.10;19.27;;;;;;;2.40;100.00;94912.41;5013173;28;20700;-68
2020/12/06 01:14:58;;;;;;;179.90;21.43;;;;;;;2.62;100.00;94891.25;5013382;28;20195;-69
2020/12/06 01:17:24;;;;;;;239.60;24.57;;;;;;;2.75;100.00;94916.88;5012595;28;20206;-68
2020/12/06 01:19:49;;;;;;;132.53;21.57;;;;;;;2.42;100.00;94918.16;5013502;28;20191;-68
2020/12/06 01:22:14;;;;;;;293.40;26.20;;;;;;;2.28;100.00;94934.09;5012193;28;20183;-72
2020/12/06 01:24:40;;;;;;;92.87;18.13;;;;;;;2.37;100.00;94937.94;5007335;28;20191;-68
2020/12/06 01:27:05;;;;;;;43.10;17.60;;;;;;;2.54;100.00;94935.50;5013480;28;20191;-69
2020/12/06 01:29:31;;;;;;;23.10;17.30;;;;;;;2.66;100.00;94933.72;5012878;28;20241;-68
2020/12/06 01:31:56;;;;;;;27.07;16.37;;;;;;;2.79;100.00;94930.91;5012820;28;20617;-69
2020/12/06 01:34:22;;;;;;;22.87;16.37;;;;;;;2.95;100.00;94926.91;5012189;28;20237;-69
2020/12/06 01:36:51;;;;;;;21.30;15.57;;;;;;;2.89;100.00;94926.78;5011508;28;20179;-69
2020/12/06 01:39:17;;;;;;;23.30;16.10;;;;;;;3.01;100.00;94942.28;5012242;28;20192;-68
2020/12/06 01:41:42;;;;;;;26.47;16.83;;;;;;;3.05;100.00;94945.25;5012491;28;20233;-69
2020/12/06 01:44:08;;;;;;;24.67;16.23;;;;;;;3.01;100.00;94955.22;5013182;28;20187;-72
2020/12/06 01:46:37;;;;;;;25.97;16.30;;;;;;;3.04;100.00;94961.78;5012024;28;20175;-68
2020/12/06 01:49:04;;;;;;;21.03;15.73;;;;;;;3.21;100.00;94978.22;5013192;28;20597;-69
2020/12/06 01:51:30;;;;;;;26.17;16.63;;;;;;;3.19;100.00;94977.63;5012209;28;20187;-68
2020/12/06 01:53:56;;;;;;;23.63;16.30;;;;;;;3.25;100.00;94987.09;5011319;28;20309;-68
2020/12/06 01:56:21;;;;;;;22.87;15.77;;;;;;;3.15;100.00;94974.72;5011658;28;20547;-69
2020/12/06 01:58:47;;;;;;;24.10;16.17;;;;;;;3.15;100.00;94963.56;5012148;28;20261;-69
2020/12/06 02:01:12;;;;;;;25.57;16.00;;;;;;;3.04;100.00;94964.34;5012660;28;20180;-74
2020/12/06 02:03:38;;;;;;;34.40;16.47;;;;;;;3.10;100.00;94961.66;5012296;28;20194;-70
2020/12/06 02:06:04;;;;;;;23.63;15.43;;;;;;;3.21;100.00;94954.91;5004991;28;20187;-69
2020/12/06 02:08:30;;;;;;;25.33;16.00;;;;;;;3.09;100.00;94944.56;4998574;28;20183;-69
2020/12/06 02:10:56;;;;;;;49.77;18.20;;;;;;;3.23;100.00;94939.97;5012113;28;20187;-69
2020/12/06 02:13:21;;;;;;;62.57;19.07;;;;;;;3.26;100.00;94934.31;5011857;28;20590;-69
2020/12/06 02:15:47;;;;;;;92.20;19.17;;;;;;;3.09;100.00;94930.84;5003008;28;20187;-68
2020/12/06 02:18:14;;;;;;;104.13;19.97;;;;;;;3.02;100.00;94933.53;5012276;28;20199;-73
2020/12/06 02:20:39;;;;;;;222.80;23.33;;;;;;;2.91;100.00;94927.34;5012307;28;20194;-67
2020/12/06 02:23:05;;;;;;;433.13;30.97;;;;;;;2.83;100.00;94934.66;5012672;28;20175;-67
2020/12/06 02:25:37;;;;;;;181.00;24.30;;;;;;;2.80;100.00;94930.69;5011522;28;20667;-67
2020/12/06 02:28:04;;;;;;;227.43;29.47;;;;;;;2.70;100.00;94930.47;5011921;28;20194;-71
2020/12/06 02:30:30;;;;;;;519.67;36.77;;;;;;;2.77;100.00;94926.00;5011452;28;20187;-67
2020/12/06 02:32:55;;;;;;;248.03;27.23;;;;;;;2.62;100.00;94914.50;5011701;28;20187;-67
2020/12/06 02:35:20;;;;;;;328.47;29.87;;;;;;;2.54;100.00;94914.81;5009920;28;20179;-68
2020/12/06 02:37:46;;;;;;;220.83;25.83;;;;;;;2.58;100.00;94913.34;5004910;28;20604;-69
2020/12/06 02:40:12;;;;;;;649.80;41.60;;;;;;;2.69;100.00;94912.59;5011624;28;20286;-67
2020/12/06 02:42:37;;;;;;;255.30;26.63;;;;;;;2.53;100.00;94908.84;5011268;28;20278;-68
2020/12/06 02:45:03;;;;;;;635.27;40.93;;;;;;;2.55;100.00;94904.25;5011270;28;20543;-67
2020/12/06 02:47:28;;;;;;;148.23;25.67;;;;;;;2.57;100.00;94901.44;5011394;28;20236;-67
2020/12/06 02:49:54;;;;;;;747.27;44.63;;;;;;;2.70;100.00;94896.06;5011441;28;20241;-67
2020/12/06 02:52:19;;;;;;;596.23;42.17;;;;;;;2.52;100.00;94886.59;5011105;28;20195;-67
2020/12/06 02:54:45;;;;;;;523.87;37.07;;;;;;;2.38;100.00;94887.81;5012073;28;20199;-67
2020/12/06 02:57:10;;;;;;;509.00;34.87;;;;;;;2.39;100.00;94892.78;5010801;28;20233;-67
2020/12/06 02:59:35;;;;;;;392.17;32.13;;;;;;;2.31;100.00;94900.03;5010278;28;20264;-67
2020/12/06 03:02:01;;;;;;;189.87;28.43;;;;;;;2.30;100.00;94888.91;5011561;28;20175;-67
2020/12/06 03:04:26;;;;;;;152.50;26.17;;;;;;;2.05;100.00;94886.50;5010832;28;20187;-67
2020/12/06 03:06:52;;;;;;;138.17;25.13;;;;;;;2.22;100.00;94889.25;5011784;28;20190;-67
2020/12/06 03:09:17;;;;;;;68.27;23.87;;;;;;;2.09;100.00;94907.50;5010767;28;20179;-73
2020/12/06 03:11:42;;;;;;;56.40;23.17;;;;;;;2.05;100.00;94912.34;5011354;28;20223;-67
2020/12/06 03:14:08;;;;;;;87.13;23.17;;;;;;;1.88;100.00;94910.59;5011442;28;20183;-69
2020/12/06 03:16:33;;;;;;;201.53;26.27;;;;;;;2.04;100.00;94904.81;5010676;28;20774;-70
2020/12/06 03:18:59;;;;;;;33.67;22.27;;;;;;;2.04;100.00;94915.13;5011177;28;20207;-67
2020/12/06 03:21:24;;;;;;;30.90;21.83;;;;;;;2.20;100.00;94930.03;5010654;28;20184;-67
2020/12/06 03:23:49;;;;;;;34.07;22.67;;;;;;;2.35;100.00;94948.50;5011405;28;20191;-67
2020/12/06 03:26:15;;;;;;;122.47;23.87;;;;;;;2.42;100.00;94928.50;5010941;28;20182;-73
2020/12/06 03:28:40;;;;;;;34.50;20.70;;;;;;;2.51;100.00;94910.88;4983575;28;20266;-69
2020/12/06 03:31:05;;;;;;;45.40;21.23;;;;;;;2.71;100.00;94913.16;5011265;28;20186;-68
2020/12/06 03:33:31;;;;;;;62.37;21.37;;;;;;;2.56;100.00;94920.56;5010475;28;20179;-69
2020/12/06 03:35:56;;;;;;;37.93;20.73;;;;;;;2.64;100.00;94922.81;5011535;28;20534;-68
2020/12/06 03:38:22;;;;;;;114.33;23.13;;;;;;;2.70;100.00;94917.53;5009637;28;20278;-67
2020/12/06 03:40:47;;;;;;;96.63;21.60;;;;;;;2.34;100.00;94909.97;5011179;28;20548;-67
2020/12/06 03:43:12;;;;;;;95.27;24.47;;;;;;;2.32;100.00;94911.97;5011116;28;20175;-67
2020/12/06 03:45:38;;;;;;;67.50;21.90;;;;;;;2.10;100.00;94909.09;5010412;28;20187;-69
2020/12/06 03:48:03;;;;;;;123.67;24.77;;;;;;;2.19;100.00;94894.06;5028867;28;20187;-68
2020/12/06 03:50:29;;;;;;;40.00;22.70;;;;;;;2.06;100.00;94885.47;5014370;28;20190;-67
2020/12/06 03:52:54;;;;;;;47.57;23.43;;;;;;;2.09;100.00;94879.09;5014761;28;20198;-67
2020/12/06 03:55:19;;;;;;;54.97;22.13;;;;;;;2.04;100.00;94884.13;5014273;28;20186;-68
2020/12/06 03:57:45;;;;;;;140.80;22.97;;;;;;;2.12;100.00;94894.16;5014401;28;20207;-67
2020/12/06 04:00:11;;;;;;;52.37;22.30;;;;;;;2.01;100.00;94910.41;5015229;28;20230;-67
2020/12/06 04:02:36;;;;;;;243.20;26.87;;;;;;;1.96;100.00;94912.84;5013353;28;20241;-71
2020/12/06 04:05:02;;;;;;;63.60;21.97;;;;;;;1.95;100.00;94919.03;5014690;28;20183;-67
2020/12/06 04:07:28;;;;;;;73.97;22.63;;;;;;;2.05;100.00;94922.69;5014016;28;20620;-67
2020/12/06 04:09:53;;;;;;;140.40;25.60;;;;;;;2.05;100.00;94921.88;4998116;28;20187;-67
2020/12/06 04:12:18;;;;;;;240.97;27.83;;;;;;;2.04;100.00;94913.34;5013638;28;20310;-68
2020/12/06 04:14:44;;;;;;;180.57;25.30;;;;;;;2.15;100.00;94922.16;5014411;28;20671;-67
2020/12/06 04:17:09;;;;;;;362.40;30.17;;;;;;;2.04;100.00;94928.84;5013279;28;20203;-68
2020/12/06 04:19:34;;;;;;;164.80;24.90;;;;;;;1.95;100.00;94935.31;5013399;28;20254;-67
2020/12/06 04:22:05;;;;;;;176.03;25.97;;;;;;;1.85;100.00;94927.28;5014697;28;20202;-67
2020/12/06 04:24:31;;;;;;;211.60;25.93;;;;;;;1.94;100.00;94914.88;5013644;28;20187;-67
2020/12/06 04:26:56;;;;;;;299.70;29.63;;;;;;;2.00;100.00;94919.97;5005918;28;20191;-67
2020/12/06 04:29:21;;;;;;;259.43;28.10;;;;;;;1.85;100.00;94918.75;5013536;28;20214;-67
2020/12/06 04:31:47;;;;;;;483.13;35.97;;;;;;;1.90;100.00;94913.72;5014248;28;20194;-67
2020/12/06 04:34:12;;;;;;;423.97;36.47;;;;;;;1.67;100.00;94920.34;5014156;28;20638;-67
2020/12/06 04:36:37;;;;;;;433.37;37.57;;;;;;;1.94;100.00;94904.56;5013019;28;20206;-67
2020/12/06 04:39:03;;;;;;;335.23;28.07;;;;;;;2.00;100.00;94895.94;5025435;28;20302;-68
2020/12/06 04:41:28;;;;;;;285.63;30.30;;;;;;;1.91;100.00;94910.13;5013248;28;20214;-67
2020/12/06 04:43:54;;;;;;;89.07;25.73;;;;;;;1.91;100.00;94916.09;5014296;28;20214;-67
2020/12/06 04:46:20;;;;;;;252.70;27.50;;;;;;;2.01;100.00;94906.03;5011842;28;20211;-67
2020/12/06 04:49:07;;;;;;;226.37;27.00;;;;;;;1.79;100.00;94904.13;5013930;28;20195;-68
2020/12/06 04:51:43;;;;;;;446.37;38.77;;;;;;;1.75;100.00;94928.81;5013063;28;20183;-68
2020/12/06 04:54:09;;;;;;;116.70;25.90;;;;;;;1.83;100.00;94934.50;5011175;28;20175;-70
2020/12/06 04:56:39;;;;;;;181.37;25.80;;;;;;;1.82;100.00;94934.69;5012829;28;20183;-68
2020/12/06 04:59:06;;;;;;;141.93;25.33;;;;;;;2.01;100.00;94918.94;5013414;28;20203;-68
2020/12/06 05:01:36;;;;;;;385.93;30.20;;;;;;;2.04;100.00;94928.06;5012937;28;20548;-68
2020/12/06 05:04:14;;;;;;;90.93;24.53;;;;;;;2.09;100.00;94931.56;5013763;28;20184;-68
2020/12/06 05:06:42;;;;;;;269.70;25.70;;;;;;;2.13;100.00;94934.47;5012947;28;20262;-69
2020/12/06 05:09:13;;;;;;;57.70;21.63;;;;;;;2.24;100.00;94928.56;4997671;28;20191;-69
2020/12/06 05:11:40;;;;;;;270.03;27.40;;;;;;;2.16;100.00;94926.31;5002100;28;20238;-68
2020/12/06 05:14:06;;;;;;;123.90;23.40;;;;;;;2.22;100.00;94919.47;5003977;28;20175;-68
2020/12/06 05:16:36;;;;;;;83.17;20.73;;;;;;;2.19;100.00;94905.19;5013004;28;20192;-68
2020/12/06 05:19:03;;;;;;;284.23;27.43;;;;;;;2.10;100.00;94901.34;5013513;28;20202;-68
2020/12/06 05:21:39;;;;;;;108.10;22.77;;;;;;;2.19;100.00;94905.19;5011448;28;20191;-68
2020/12/06 05:24:05;;;;;;;165.70;23.17;;;;;;;1.98;100.00;94913.44;5012966;28;20167;-69
2020/12/06 05:26:31;;;;;;;74.77;21.57;;;;;;;2.05;100.00;94922.69;5012773;28;20270;-68
2020/12/06 05:28:57;;;;;;;176.47;24.13;;;;;;;2.09;100.00;94935.94;5013488;28;20289;-68
2020/12/06 05:31:24;;;;;;;206.57;22.43;;;;;;;2.13;100.00;94931.91;5012761;28;20183;-68
2020/12/06 05:33:50;;;;;;;53.67;20.63;;;;;;;2.08;100.00;94924.03;5012998;28;20211;-68
2020/12/06 05:36:16;;;;;;;232.67;24.83;;;;;;;2.10;100.00;94929.78;5012418;28;20179;-73
2020/12/06 05:38:42;;;;;;;128.93;23.50;;;;;;;2.00;100.00;94930.31;5012468;28;20229;-69
2020/12/06 05:41:08;;;;;;;55.83;22.10;;;;;;;1.98;100.00;94927.13;5027875;28;20195;-68
2020/12/06 05:43:33;;;;;;;63.00;20.80;;;;;;;2.10;100.00;94934.94;5011643;28;20809;-68
2020/12/06 05:46:05;;;;;;;56.03;21.03;;;;;;;2.00;100.00;94932.09;5013243;28;20660;-68
2020/12/06 05:48:32;;;;;;;66.43;23.23;;;;;;;2.13;100.00;94928.53;5012068;28;20207;-68
2020/12/06 05:50:58;;;;;;;71.10;22.70;;;;;;;2.14;100.00;94910.22;5012974;28;20184;-68
2020/12/06 05:53:25;;;;;;;42.27;20.87;;;;;;;2.15;100.00;94916.97;5011843;28;20229;-68
2020/12/06 05:55:55;;;;;;;105.67;22.33;;;;;;;2.31;100.00;94916.34;5019129;28;20198;-68
2020/12/06 05:58:22;;;;;;;45.07;21.60;;;;;;;2.19;100.00;94912.16;5011429;28;20196;-68
2020/12/06 06:00:49;;;;;;;48.80;21.93;;;;;;;2.36;100.00;94921.63;5012621;28;20548;-68
2020/12/06 06:03:16;;;;;;;44.57;21.00;;;;;;;2.31;100.00;94912.97;5011230;28;20195;-72
2020/12/06 06:05:45;;;;;;;40.03;20.33;;;;;;;2.16;100.00;94923.72;5012249;28;20175;-68
2020/12/06 06:08:12;;;;;;;43.13;21.83;;;;;;;2.25;100.00;94934.53;5019449;28;20188;-68
2020/12/06 06:10:49;;;;;;;39.43;20.20;;;;;;;2.28;100.00;94944.44;5011958;28;20226;-68
2020/12/06 06:13:21;;;;;;;42.03;21.33;;;;;;;2.19;100.00;94932.81;5004857;28;20211;-72
2020/12/06 06:15:48;;;;;;;38.47;20.57;;;;;;;2.04;100.00;94923.69;5012769;28;20179;-68
2020/12/06 06:18:15;;;;;;;42.13;20.63;;;;;;;2.18;100.00;94934.59;5003065;28;20206;-72
2020/12/06 06:20:41;;;;;;;45.10;22.03;;;;;;;2.30;100.00;94934.66;5018755;28;20283;-70
2020/12/06 06:23:08;;;;;;;37.60;20.00;;;;;;;2.32;100.00;94924.88;4997288;28;20194;-67
2020/12/06 06:25:34;;;;;;;43.47;20.30;;;;;;;2.36;99.44;94931.19;4998209;28;20187;-69
2020/12/06 06:28:00;;;;;;;50.70;21.33;;;;;;;2.17;100.00;94940.81;5006459;28;20230;-69
2020/12/06 06:30:25;;;;;;;48.30;20.30;;;;;;;2.14;100.00;94953.38;5002105;28;20189;-69
2020/12/06 06:32:50;;;;;;;39.10;20.20;;;;;;;2.23;100.00;94965.75;5004638;28;20634;-68
2020/12/06 06:35:16;;;;;;;41.10;20.77;;;;;;;2.33;100.00;94967.81;5002483;28;20187;-73
2020/12/06 06:37:41;;;;;;;42.30;20.93;;;;;;;2.45;100.00;94990.09;5005978;28;20207;-68
2020/12/06 06:40:08;;;;;;;39.93;19.40;;;;;;;2.45;100.00;94997.84;5011991;28;20195;-68
2020/12/06 06:42:36;;;;;;;42.17;20.80;;;;;;;2.48;100.00;94999.22;5011206;28;20359;-68
2020/12/06 06:45:05;;;;;;;45.73;21.97;;;;;;;2.47;100.00;94995.84;5011576;28;20229;-68
2020/12/06 06:47:35;;;;;;;38.20;20.77;;;;;;;2.47;100.00;94987.31;5011055;28;20186;-67
2020/12/06 06:50:00;;;;;;;42.23;20.60;;;;;;;2.41;100.00;95001.91;5011638;28;20179;-68
2020/12/06 06:52:27;;;;;;;41.93;20.67;;;;;;;2.49;100.00;95003.41;5011091;28;20191;-68
2020/12/06 06:54:55;;;;;;;37.60;21.07;;;;;;;2.71;100.00;95004.47;5010178;28;20245;-67
2020/12/06 06:57:22;;;;;;;43.70;21.20;;;;;;;2.60;100.00;95002.66;5010798;28;20600;-68
2020/12/06 06:59:51;;;;;;;40.83;20.53;;;;;;;2.65;100.00;95000.19;5012023;28;20525;-69
2020/12/06 07:02:21;;;;;;;37.77;19.07;;;;;;;2.61;100.00;95001.63;5010638;28;20238;-74
2020/12/06 07:04:47;;;;;;;41.03;18.30;;;;;;;2.58;100.00;95009.03;5011518;28;20270;-71
2020/12/06 07:07:15;;;;;;;44.30;19.57;;;;;;;2.56;100.00;95001.50;5011276;28;20238;-70
2020/12/06 07:09:40;;;;;;;39.20;19.13;;;;;;;2.42;100.00;95002.69;5011209;28;20175;-69
2020/12/06 07:12:08;;;;;;;37.53;18.67;;;;;;;2.49;100.00;94998.22;5002639;28;20713;-69
2020/12/06 07:14:34;;;;;;;44.27;18.90;;;;;;;2.65;100.00;94996.81;5010812;28;20191;-69
2020/12/06 07:16:59;;;;;;;39.27;18.47;;;;;;;2.67;100.00;95005.94;5017769;28;20187;-69
2020/12/06 07:19:25;;;;;;;36.10;18.37;;;;;;;2.69;100.00;95010.88;5010856;28;20184;-69
2020/12/06 07:21:51;;;;;;;48.53;19.20;;;;;;;2.80;100.00;95004.94;5011379;28;20321;-68
2020/12/06 07:24:18;;;;;;;44.93;18.53;;;;;;;2.69;100.00;94996.13;5010365;28;20179;-72
2020/12/06 07:26:45;;;;;;;36.97;17.93;;;;;;;2.79;100.00;94993.78;5008488;28;20635;-68
2020/12/06 07:29:11;;;;;;;41.60;19.17;;;;;;;2.84;100.00;94996.50;5011114;28;20187;-68
2020/12/06 07:31:37;;;;;;;42.93;18.03;;;;;;;2.82;100.00;95001.13;5009632;28;21109;-68
2020/12/06 07:34:04;;;;;;;68.83;19.37;;;;;;;2.96;100.00;94980.19;5011458;28;20576;-70
2020/12/06 07:36:31;;;;;;;52.97;18.23;;;;;;;2.77;100.00;94977.72;5010667;28;20214;-69
2020/12/06 07:38:57;;;;;;;59.10;17.93;;;;;;;2.79;100.00;94980.06;5011114;28;20214;-69
2020/12/06 07:41:22;;;;;;;38.20;17.73;;;;;;;2.83;100.00;94987.19;5010811;28;20191;-69
2020/12/06 07:43:53;;;;;;;37.30;17.17;;;;;;;2.89;100.00;94990.69;5011247;28;20185;-69
2020/12/06 07:46:20;;;;;;;59.57;16.17;;;;;;;2.76;100.00;94993.47;5010545;28;20266;-70
2020/12/06 07:48:46;;;;;;;70.23;18.47;;;;;;;2.77;100.00;95002.78;5010603;28;20187;-69
2020/12/06 07:51:11;;;;;;;44.30;16.90;;;;;;;2.77;100.00;95005.38;5011131;28;20191;-69
2020/12/06 07:53:59;;;;;;;40.30;17.27;;;;;;;2.84;100.00;95004.25;5010450;28;20179;-70
2020/12/06 07:56:25;;;;;;;53.23;17.53;;;;;;;2.96;100.00;94996.53;5010477;28;20187;-68
2020/12/06 07:59:05;;;;;;;50.23;16.00;;;;;;;2.94;100.00;94998.56;5010461;28;20265;-70
2020/12/06 08:01:32;;;;;;;40.33;16.00;;;;;;;2.92;100.00;95021.28;5010247;28;20195;-69
2020/12/06 08:03:59;;;;;;;34.57;15.93;;;;;;;2.93;100.00;95020.25;5010769;28;20183;-72
2020/12/06 08:06:27;;;;;;;49.47;16.70;;;;;;;2.99;100.00;95018.59;5010389;28;20184;-70
2020/12/06 08:08:58;;;;;;;34.23;15.17;;;;;;;2.96;100.00;95006.88;5022156;28;20188;-69
2020/12/06 08:11:35;;;;;;;40.93;17.87;;;;;;;3.12;100.00;95011.38;5000082;28;20227;-72
2020/12/06 08:14:01;;;;;;;45.13;18.77;;;;;;;3.06;100.00;95014.91;5004492;28;20167;-72
2020/12/06 08:16:26;;;;;;;38.50;18.57;;;;;;;3.09;100.00;95019.63;5010608;28;20184;-69
2020/12/06 08:19:03;;;;;;;48.03;18.27;;;;;;;3.16;100.00;95017.72;5003705;28;20620;-68
2020/12/06 08:21:44;;;;;;;51.87;18.40;;;;;;;3.15;100.00;95025.69;5010240;28;20175;-69
2020/12/06 08:24:23;;;;;;;38.63;16.07;;;;;;;3.17;100.00;95023.69;5003532;28;20202;-70
2020/12/06 08:26:50;;;;;;;31.43;16.07;;;;;;;3.14;100.00;95006.00;4993983;28;20648;-71
2020/12/06 08:29:16;;;;;;;46.70;16.37;;;;;;;3.35;99.62;95005.44;5017561;28;20545;-73
2020/12/06 08:31:43;;;;;;;44.23;16.63;;;;;;;3.26;100.00;95005.00;5011124;28;20194;-69
2020/12/06 08:34:13;;;;;;;35.53;15.43;;;;;;;3.27;100.00;95003.19;5012676;28;20190;-69
2020/12/06 08:36:40;;;;;;;32.57;15.20;;;;;;;3.25;99.32;94987.88;5006614;28;20210;-68
2020/12/06 08:39:22;;;;;;;42.60;15.47;;;;;;;3.19;100.00;95001.72;5014291;28;20545;-69
2020/12/06 08:41:48;;;;;;;38.87;15.93;;;;;;;3.30;100.00;95003.53;5014555;28;20199;-69
2020/12/06 08:44:14;;;;;;;40.47;15.47;;;;;;;3.31;100.00;95010.28;5013822;28;20191;-71
2020/12/06 08:46:52;;;;;;;33.40;13.80;;;;;;;3.34;100.00;95004.66;5013557;28;20249;-69
2020/12/06 08:49:21;;;;;;;40.80;13.97;;;;;;;3.42;98.92;94994.97;4989870;28;20703;-70
2020/12/06 08:51:49;;;;;;;31.77;12.23;;;;;;;3.41;99.18;94995.97;5000503;28;20179;-69
2020/12/06 08:54:36;;;;;;;33.97;12.97;;;;;;;3.34;99.61;94986.53;5012891;28;20192;-71
2020/12/06 08:57:25;;;;;;;30.40;13.87;;;;;;;3.52;99.69;94993.38;5013437;28;20640;-72
2020/12/06 08:59:51;;;;;;;26.93;12.20;;;;;;;3.54;99.55;94982.81;5017607;28;20278;-71
2020/12/06 09:02:22;;;;;;;31.57;12.73;;;;;;;3.50;100.00;94979.09;5012272;28;20211;-72
2020/12/06 09:04:47;;;;;;;32.50;12.53;;;;;;;3.51;99.42;94970.34;4999878;28;20564;-69
2020/12/06 09:07:13;;;;;;;28.73;11.17;;;;;;;3.54;100.00;94975.84;5013592;28;20190;-68
2020/12/06 09:09:38;;;;;;;28.83;12.00;;;;;;;3.63;99.09;94973.66;5011769;28;20242;-69
2020/12/06 09:12:03;;;;;;;21.60;11.67;;;;;;;3.72;98.68;94959.38;5013600;28;20231;-70
2020/12/06 09:14:29;;;;;;;25.60;11.63;;;;;;;3.65;98.92;94967.25;5012715;28;20585;-71
2020/12/06 09:16:54;;;;;;;29.73;12.20;;;;;;;3.83;97.91;94984.47;5004376;28;20557;-70
2020/12/06 09:19:20;;;;;;;22.73;11.87;;;;;;;3.83;98.38;94981.09;5011462;28;20210;-70
2020/12/06 09:21:45;;;;;;;22.17;11.77;;;;;;;3.80;98.22;94981.53;5013074;28;20187;-70
2020/12/06 09:24:11;;;;;;;25.23;11.90;;;;;;;3.75;98.61;94977.81;5013579;28;20183;-71
2020/12/06 09:26:36;;;;;;;20.77;10.93;;;;;;;3.87;96.51;94977.81;5005388;28;20760;-71
2020/12/06 09:29:02;;;;;;;22.00;11.83;;;;;;;3.89;96.91;94978.38;5013163;28;20706;-70
2020/12/06 09:31:27;;;;;;;21.97;11.37;;;;;;;4.07;96.65;94993.75;5001398;28;20227;-69
2020/12/06 09:33:53;;;;;;;23.30;11.10;;;;;;;4.05;96.40;95006.16;5011871;28;20187;-70
2020/12/06 09:36:19;;;;;;;19.00;10.47;;;;;;;3.96;96.17;95010.09;5011030;28;20270;-70
2020/12/06 09:38:45;;;;;;;21.33;10.50;;;;;;;3.93;97.19;95005.41;5013351;28;20313;-70
2020/12/06 09:41:14;;;;;;;19.80;10.70;;;;;;;4.04;96.58;95006.38;5013513;28;20196;-69
2020/12/06 09:43:41;;;;;;;20.57;10.90;;;;;;;3.90;97.09;94998.06;5012352;28;20209;-68
2020/12/06 09:46:14;;;;;;;21.80;11.87;;;;;;;3.90;97.13;95005.84;4997673;28;20202;-71
2020/12/06 09:48:40;;;;;;;21.20;11.87;;;;;;;3.92;96.59;95011.59;5012513;28;20202;-72
2020/12/06 09:51:07;;;;;;;21.57;12.00;;;;;;;4.10;95.80;95015.84;5013206;28;20179;-71
2020/12/06 09:53:33;;;;;;;21.77;11.90;;;;;;;4.02;95.79;95022.16;5012497;28;20273;-72
2020/12/06 09:55:58;;;;;;;17.70;10.07;;;;;;;3.90;95.71;95010.25;5011702;28;20278;-72
2020/12/06 09:58:24;;;;;;;19.33;10.83;;;;;;;3.92;96.05;94996.03;5011345;28;20203;-72
2020/12/06 10:00:49;;;;;;;16.67;10.30;;;;;;;3.98;96.45;95009.88;5000691;28;20218;-71
2020/12/06 10:03:14;;;;;;;15.43;9.50;;;;;;;4.07;95.56;95017.06;5011154;28;20547;-72
2020/12/06 10:05:41;;;;;;;16.70;9.50;;;;;;;4.04;95.90;95001.19;5011909;28;20187;-71
2020/12/06 10:08:07;;;;;;;19.63;11.23;;;;;;;4.18;95.66;94998.09;5003789;28;20199;-72
2020/12/06 10:10:32;;;;;;;15.83;9.80;;;;;;;4.02;95.96;95009.19;5011159;28;20180;-71
2020/12/06 10:12:58;;;;;;;18.17;10.37;;;;;;;4.15;95.81;94995.97;5012703;28;20227;-71
2020/12/06 10:15:23;;;;;;;17.30;10.63;;;;;;;4.19;96.00;94986.72;5011323;28;20347;-70
2020/12/06 10:17:48;;;;;;;18.73;10.07;;;;;;;4.26;94.84;94996.16;5004239;28;20570;-71
2020/12/06 10:20:14;;;;;;;17.70;10.47;;;;;;;4.25;94.91;95004.97;5013196;28;20216;-73
2020/12/06 10:22:39;;;;;;;15.63;10.13;;;;;;;4.25;95.02;95026.50;5012706;28;20191;-70
2020/12/06 10:25:06;;;;;;;19.57;10.60;;;;;;;4.36;95.02;95037.84;5002109;28;20188;-71
2020/12/06 10:27:31;;;;;;;22.40;14.93;;;;;;;4.25;96.19;95030.88;5012150;28;20187;-74
2020/12/06 10:29:57;;;;;;;16.37;10.00;;;;;;;4.26;95.86;95027.28;5012225;28;20656;-70
2020/12/06 10:32:23;;;;;;;31.73;23.47;;;;;;;4.31;95.74;95033.34;5011550;28;20242;-70
2020/12/06 10:34:48;;;;;;;29.07;17.63;;;;;;;4.57;95.11;95009.44;5012228;28;20183;-68
2020/12/06 10:37:13;;;;;;;19.10;14.73;;;;;;;4.64;94.13;95017.09;5011437;28;20195;-70
2020/12/06 10:39:39;;;;;;;13.70;8.63;;;;;;;4.58;94.08;95021.41;5011030;28;20652;-69
2020/12/06 10:42:05;;;;;;;13.70;8.90;;;;;;;4.73;93.59;95022.72;5011952;28;20640;-69
2020/12/06 10:44:30;;;;;;;20.53;13.57;;;;;;;4.72;93.73;95011.53;5010761;28;20214;-66
2020/12/06 10:46:56;;;;;;;16.43;8.63;;;;;;;4.84;91.82;95011.50;5010911;28;20183;-68
2020/12/06 10:49:21;;;;;;;11.20;8.13;;;;;;;4.89;91.71;95014.94;5010653;28;20689;-67
2020/12/06 10:51:48;;;;;;;13.03;8.37;;;;;;;4.95;93.38;95016.63;5012155;28;20678;-67
2020/12/06 10:54:14;;;;;;;11.47;8.33;;;;;;;4.75;93.92;95005.88;5010752;28;20211;-69
2020/12/06 10:56:40;;;;;;;12.57;8.10;;;;;;;4.77;92.23;94996.06;5003767;28;20187;-70
2020/12/06 10:59:06;;;;;;;10.30;7.60;;;;;;;4.84;92.43;94988.13;5003984;28;20223;-68
2020/12/06 11:01:33;;;;;;;12.90;8.73;;;;;;;4.89;90.60;94994.19;5000935;28;20746;-68
2020/12/06 11:03:59;;;;;;;11.60;7.77;;;;;;;4.79;92.58;95003.63;5011154;28;20183;-68
2020/12/06 11:06:25;;;;;;;10.83;7.40;;;;;;;4.82;92.22;94993.53;5010673;28;20541;-68
2020/12/06 11:08:51;;;;;;;10.50;7.97;;;;;;;4.70;93.85;94987.63;5021639;28;20613;-68
2020/12/06 11:11:20;;;;;;;11.87;7.83;;;;;;;4.74;93.69;94995.72;5011708;28;20262;-70
2020/12/06 11:13:46;;;;;;;11.90;8.20;;;;;;;4.72;94.01;94995.97;5012093;28;20180;-68
2020/12/06 11:16:19;;;;;;;12.67;8.23;;;;;;;4.92;91.67;94995.50;5011051;28;20190;-68